sensor_id;sensor_type;location;lat;lon;timestamp;P1;durP1;ratioP1;P2;durP2;ratioP2
63193;SDS011;49289;51.670;5.624;2022-09-03T00:00:33;6.60;;;2.20;;
63193;SDS011;49289;51.670;5.624;2022-09-03T00:02:20;2.80;;;2.20;;
63193;SDS011;49289;51.670;5.624;2022-09-03T00:03:54;5.50;;;2.30;;
63193;SDS011;49289;51.670;5.624;2022-09-03T00:05:42;2.90;;;2.00;;
63193;SDS011;49289;51.670;5.624;2022-09-03T00:07:35;3.00;;;1.90;;
63193;SDS011;49289;51.670;5.624;2022-09-03T00:09:22;2.30;;;2.10;;
63193;SDS011;49289;51.670;5.624;2022-09-03T00:11:09;3.10;;;2.30;;
63193;SDS011;49289;51.670;5.624;2022-09-03T00:12:56;3.90;;;2.00;;
63193;SDS011;49289;51.670;5.624;2022-09-03T00:14:32;4.70;;;2.00;;
63193;SDS011;49289;51.670;5.624;2022-09-03T00:16:17;4.70;;;2.10;;
63193;SDS011;49289;51.670;5.624;2022-09-03T00:18:06;4.50;;;2.00;;
63193;SDS011;49289;51.670;5.624;2022-09-03T00:19:38;3.80;;;2.30;;
63193;SDS011;49289;51.670;5.624;2022-09-03T00:21:29;2.90;;;2.20;;
63193;SDS011;49289;51.670;5.624;2022-09-03T00:23:03;4.90;;;2.00;;
63193;SDS011;49289;51.670;5.624;2022-09-03T00:24:49;2.80;;;2.20;;
63193;SDS011;49289;51.670;5.624;2022-09-03T00:26:38;5.10;;;2.30;;
63193;SDS011;49289;51.670;5.624;2022-09-03T00:28:27;2.90;;;2.10;;
63193;SDS011;49289;51.670;5.624;2022-09-03T00:30:14;4.40;;;2.20;;
63193;SDS011;49289;51.670;5.624;2022-09-03T00:32:03;3.70;;;2.10;;
63193;SDS011;49289;51.670;5.624;2022-09-03T00:33:34;4.00;;;1.90;;
63193;SDS011;49289;51.670;5.624;2022-09-03T00:35:22;3.50;;;2.10;;
63193;SDS011;49289;51.670;5.624;2022-09-03T00:37:10;4.20;;;2.10;;
63193;SDS011;49289;51.670;5.624;2022-09-03T00:38:43;2.10;;;1.90;;
63193;SDS011;49289;51.670;5.624;2022-09-03T00:40:37;4.70;;;2.20;;
63193;SDS011;49289;51.670;5.624;2022-09-03T00:42:30;5.20;;;2.30;;
63193;SDS011;49289;51.670;5.624;2022-09-03T00:46:25;3.40;;;2.50;;
63193;SDS011;49289;51.670;5.624;2022-09-03T00:48:02;2.80;;;2.10;;
63193;SDS011;49289;51.670;5.624;2022-09-03T00:49:38;2.20;;;2.00;;
63193;SDS011;49289;51.670;5.624;2022-09-03T00:51:30;2.60;;;2.30;;
63193;SDS011;49289;51.670;5.624;2022-09-03T00:53:19;4.50;;;2.20;;
63193;SDS011;49289;51.670;5.624;2022-09-03T00:54:52;2.90;;;2.10;;
63193;SDS011;49289;51.670;5.624;2022-09-03T00:56:42;3.90;;;2.30;;
63193;SDS011;49289;51.670;5.624;2022-09-03T00:58:32;2.50;;;2.20;;
63193;SDS011;49289;51.670;5.624;2022-09-03T01:00:24;3.60;;;2.00;;
63193;SDS011;49289;51.670;5.624;2022-09-03T01:02:16;3.20;;;2.40;;
63193;SDS011;49289;51.670;5.624;2022-09-03T01:04:05;2.70;;;2.40;;
63193;SDS011;49289;51.670;5.624;2022-09-03T01:05:58;4.20;;;2.20;;
63193;SDS011;49289;51.670;5.624;2022-09-03T01:07:48;2.80;;;2.20;;
63193;SDS011;49289;51.670;5.624;2022-09-03T01:09:37;3.30;;;2.40;;
63193;SDS011;49289;51.670;5.624;2022-09-03T01:11:29;3.20;;;2.20;;
63193;SDS011;49289;51.670;5.624;2022-09-03T01:13:16;3.20;;;2.00;;
63193;SDS011;49289;51.670;5.624;2022-09-03T01:15:05;3.90;;;2.30;;
63193;SDS011;49289;51.670;5.624;2022-09-03T01:16:54;3.30;;;2.20;;
63193;SDS011;49289;51.670;5.624;2022-09-03T01:18:41;4.30;;;2.10;;
63193;SDS011;49289;51.670;5.624;2022-09-03T01:20:28;5.20;;;2.20;;
63193;SDS011;49289;51.670;5.624;2022-09-03T01:22:24;2.10;;;1.90;;
63193;SDS011;49289;51.670;5.624;2022-09-03T01:24:22;4.40;;;2.20;;
63193;SDS011;49289;51.670;5.624;2022-09-03T01:28:22;2.80;;;2.10;;
63193;SDS011;49289;51.670;5.624;2022-09-03T01:30:23;4.00;;;2.50;;
63193;SDS011;49289;51.670;5.624;2022-09-03T01:32:12;4.20;;;2.30;;
63193;SDS011;49289;51.670;5.624;2022-09-03T01:34:01;4.50;;;2.30;;
63193;SDS011;49289;51.670;5.624;2022-09-03T01:35:49;2.70;;;2.20;;
63193;SDS011;49289;51.670;5.624;2022-09-03T01:37:37;4.60;;;2.30;;
63193;SDS011;49289;51.670;5.624;2022-09-03T01:39:36;4.80;;;2.40;;
63193;SDS011;49289;51.670;5.624;2022-09-03T01:41:17;3.30;;;2.30;;
63193;SDS011;49289;51.670;5.624;2022-09-03T01:43:09;3.20;;;2.30;;
63193;SDS011;49289;51.670;5.624;2022-09-03T01:44:55;4.70;;;2.50;;
63193;SDS011;49289;51.670;5.624;2022-09-03T01:46:44;5.60;;;2.50;;
63193;SDS011;49289;51.670;5.624;2022-09-03T01:48:35;2.60;;;2.30;;
63193;SDS011;49289;51.670;5.624;2022-09-03T01:50:32;3.00;;;2.30;;
63193;SDS011;49289;51.670;5.624;2022-09-03T01:52:21;4.20;;;2.30;;
63193;SDS011;49289;51.670;5.624;2022-09-03T01:56:21;3.30;;;2.60;;
63193;SDS011;49289;51.670;5.624;2022-09-03T01:58:08;3.00;;;2.40;;
63193;SDS011;49289;51.670;5.624;2022-09-03T01:59:54;4.10;;;2.40;;
63193;SDS011;49289;51.670;5.624;2022-09-03T02:01:29;2.80;;;2.40;;
63193;SDS011;49289;51.670;5.624;2022-09-03T02:03:15;3.80;;;2.50;;
63193;SDS011;49289;51.670;5.624;2022-09-03T02:05:04;4.10;;;2.50;;
63193;SDS011;49289;51.670;5.624;2022-09-03T02:06:51;4.80;;;2.50;;
63193;SDS011;49289;51.670;5.624;2022-09-03T02:08:38;3.40;;;2.30;;
63193;SDS011;49289;51.670;5.624;2022-09-03T02:10:26;4.90;;;2.40;;
63193;SDS011;49289;51.670;5.624;2022-09-03T02:12:14;8.30;;;2.50;;
63193;SDS011;49289;51.670;5.624;2022-09-03T02:14:02;4.00;;;2.50;;
63193;SDS011;49289;51.670;5.624;2022-09-03T02:15:50;4.60;;;2.60;;
63193;SDS011;49289;51.670;5.624;2022-09-03T02:17:37;3.20;;;2.30;;
63193;SDS011;49289;51.670;5.624;2022-09-03T02:19:11;2.60;;;2.40;;
63193;SDS011;49289;51.670;5.624;2022-09-03T02:20:59;2.90;;;2.40;;
63193;SDS011;49289;51.670;5.624;2022-09-03T02:22:47;6.10;;;2.50;;
63193;SDS011;49289;51.670;5.624;2022-09-03T02:24:35;4.40;;;2.70;;
63193;SDS011;49289;51.670;5.624;2022-09-03T02:26:23;5.50;;;2.50;;
63193;SDS011;49289;51.670;5.624;2022-09-03T02:27:56;3.00;;;2.60;;
63193;SDS011;49289;51.670;5.624;2022-09-03T02:29:44;7.40;;;2.50;;
63193;SDS011;49289;51.670;5.624;2022-09-03T02:31:31;5.50;;;2.40;;
63193;SDS011;49289;51.670;5.624;2022-09-03T02:33:18;3.80;;;2.50;;
63193;SDS011;49289;51.670;5.624;2022-09-03T02:34:50;5.20;;;2.40;;
63193;SDS011;49289;51.670;5.624;2022-09-03T02:36:24;5.10;;;2.60;;
63193;SDS011;49289;51.670;5.624;2022-09-03T02:38:15;4.10;;;3.10;;
63193;SDS011;49289;51.670;5.624;2022-09-03T02:40:02;4.00;;;2.40;;
63193;SDS011;49289;51.670;5.624;2022-09-03T02:41:50;4.20;;;2.70;;
63193;SDS011;49289;51.670;5.624;2022-09-03T02:43:42;3.30;;;2.30;;
63193;SDS011;49289;51.670;5.624;2022-09-03T02:45:17;9.10;;;2.90;;
63193;SDS011;49289;51.670;5.624;2022-09-03T02:47:05;5.60;;;2.40;;
63193;SDS011;49289;51.670;5.624;2022-09-03T02:48:51;3.50;;;2.00;;
63193;SDS011;49289;51.670;5.624;2022-09-03T02:50:44;2.80;;;2.50;;
63193;SDS011;49289;51.670;5.624;2022-09-03T02:52:31;5.80;;;2.60;;
63193;SDS011;49289;51.670;5.624;2022-09-03T02:54:19;4.20;;;2.60;;
63193;SDS011;49289;51.670;5.624;2022-09-03T02:55:52;3.20;;;2.40;;
63193;SDS011;49289;51.670;5.624;2022-09-03T02:57:27;4.70;;;2.30;;
63193;SDS011;49289;51.670;5.624;2022-09-03T02:59:14;3.00;;;2.40;;
63193;SDS011;49289;51.670;5.624;2022-09-03T03:01:03;3.10;;;2.10;;
63193;SDS011;49289;51.670;5.624;2022-09-03T03:02:51;3.50;;;2.10;;
63193;SDS011;49289;51.670;5.624;2022-09-03T03:04:39;3.70;;;2.30;;
63193;SDS011;49289;51.670;5.624;2022-09-03T03:06:26;4.10;;;2.90;;
63193;SDS011;49289;51.670;5.624;2022-09-03T03:08:13;2.90;;;2.40;;
63193;SDS011;49289;51.670;5.624;2022-09-03T03:10:00;3.90;;;2.50;;
63193;SDS011;49289;51.670;5.624;2022-09-03T03:11:47;3.20;;;2.20;;
63193;SDS011;49289;51.670;5.624;2022-09-03T03:13:19;3.90;;;2.10;;
63193;SDS011;49289;51.670;5.624;2022-09-03T03:14:52;3.90;;;2.20;;
63193;SDS011;49289;51.670;5.624;2022-09-03T03:16:25;3.40;;;2.40;;
63193;SDS011;49289;51.670;5.624;2022-09-03T03:18:14;3.50;;;2.50;;
63193;SDS011;49289;51.670;5.624;2022-09-03T03:19:46;3.80;;;2.20;;
63193;SDS011;49289;51.670;5.624;2022-09-03T03:21:18;4.90;;;2.50;;
63193;SDS011;49289;51.670;5.624;2022-09-03T03:22:50;3.40;;;2.40;;
63193;SDS011;49289;51.670;5.624;2022-09-03T03:24:23;2.60;;;2.40;;
63193;SDS011;49289;51.670;5.624;2022-09-03T03:26:12;4.00;;;2.30;;
63193;SDS011;49289;51.670;5.624;2022-09-03T03:27:59;5.60;;;2.40;;
63193;SDS011;49289;51.670;5.624;2022-09-03T03:29:47;6.30;;;2.50;;
63193;SDS011;49289;51.670;5.624;2022-09-03T03:31:35;3.00;;;2.30;;
63193;SDS011;49289;51.670;5.624;2022-09-03T03:33:23;6.20;;;2.70;;
63193;SDS011;49289;51.670;5.624;2022-09-03T03:35:12;4.30;;;2.50;;
63193;SDS011;49289;51.670;5.624;2022-09-03T03:37:00;3.00;;;2.60;;
63193;SDS011;49289;51.670;5.624;2022-09-03T03:38:52;4.50;;;2.30;;
63193;SDS011;49289;51.670;5.624;2022-09-03T03:40:37;3.00;;;2.30;;
63193;SDS011;49289;51.670;5.624;2022-09-03T03:42:25;3.80;;;2.40;;
63193;SDS011;49289;51.670;5.624;2022-09-03T03:44:13;6.00;;;2.60;;
63193;SDS011;49289;51.670;5.624;2022-09-03T03:46:04;2.50;;;2.30;;
63193;SDS011;49289;51.670;5.624;2022-09-03T03:47:37;3.40;;;2.20;;
63193;SDS011;49289;51.670;5.624;2022-09-03T03:49:24;4.80;;;2.30;;
63193;SDS011;49289;51.670;5.624;2022-09-03T03:51:11;2.90;;;2.40;;
63193;SDS011;49289;51.670;5.624;2022-09-03T03:52:58;5.60;;;2.40;;
63193;SDS011;49289;51.670;5.624;2022-09-03T03:54:45;4.60;;;2.50;;
63193;SDS011;49289;51.670;5.624;2022-09-03T03:56:32;3.00;;;2.20;;
63193;SDS011;49289;51.670;5.624;2022-09-03T03:57:16;4.00;;;2.40;;
63193;SDS011;49289;51.670;5.624;2022-09-03T03:59:03;5.60;;;2.30;;
63193;SDS011;49289;51.670;5.624;2022-09-03T04:00:50;3.20;;;2.40;;
63193;SDS011;49289;51.670;5.624;2022-09-03T04:02:38;4.80;;;2.50;;
63193;SDS011;49289;51.670;5.624;2022-09-03T04:04:25;5.80;;;2.40;;
63193;SDS011;49289;51.670;5.624;2022-09-03T04:06:13;3.80;;;2.20;;
63193;SDS011;49289;51.670;5.624;2022-09-03T04:07:59;5.80;;;2.80;;
63193;SDS011;49289;51.670;5.624;2022-09-03T04:09:46;5.00;;;2.70;;
63193;SDS011;49289;51.670;5.624;2022-09-03T04:11:34;4.80;;;2.50;;
63193;SDS011;49289;51.670;5.624;2022-09-03T04:13:22;4.20;;;2.70;;
63193;SDS011;49289;51.670;5.624;2022-09-03T04:15:11;6.20;;;2.30;;
63193;SDS011;49289;51.670;5.624;2022-09-03T04:16:58;4.40;;;2.60;;
63193;SDS011;49289;51.670;5.624;2022-09-03T04:18:45;6.30;;;2.60;;
63193;SDS011;49289;51.670;5.624;2022-09-03T04:20:32;4.80;;;2.60;;
63193;SDS011;49289;51.670;5.624;2022-09-03T04:22:20;3.90;;;2.50;;
63193;SDS011;49289;51.670;5.624;2022-09-03T04:23:52;3.30;;;2.40;;
63193;SDS011;49289;51.670;5.624;2022-09-03T04:25:39;3.40;;;2.40;;
63193;SDS011;49289;51.670;5.624;2022-09-03T04:27:26;4.90;;;2.50;;
63193;SDS011;49289;51.670;5.624;2022-09-03T04:29:14;2.90;;;2.50;;
63193;SDS011;49289;51.670;5.624;2022-09-03T04:31:05;6.10;;;2.60;;
63193;SDS011;49289;51.670;5.624;2022-09-03T04:32:54;5.00;;;2.70;;
63193;SDS011;49289;51.670;5.624;2022-09-03T04:34:27;4.40;;;2.50;;
63193;SDS011;49289;51.670;5.624;2022-09-03T04:36:15;2.60;;;2.30;;
63193;SDS011;49289;51.670;5.624;2022-09-03T04:37:46;4.60;;;2.60;;
63193;SDS011;49289;51.670;5.624;2022-09-03T04:39:19;4.00;;;2.30;;
63193;SDS011;49289;51.670;5.624;2022-09-03T04:41:08;3.50;;;2.40;;
63193;SDS011;49289;51.670;5.624;2022-09-03T04:42:41;2.80;;;2.50;;
63193;SDS011;49289;51.670;5.624;2022-09-03T04:44:14;4.20;;;2.90;;
63193;SDS011;49289;51.670;5.624;2022-09-03T04:45:46;3.40;;;2.60;;
63193;SDS011;49289;51.670;5.624;2022-09-03T04:47:33;2.60;;;2.30;;
63193;SDS011;49289;51.670;5.624;2022-09-03T04:49:20;3.20;;;2.40;;
63193;SDS011;49289;51.670;5.624;2022-09-03T04:51:09;2.90;;;2.40;;
63193;SDS011;49289;51.670;5.624;2022-09-03T04:52:57;8.80;;;2.60;;
63193;SDS011;49289;51.670;5.624;2022-09-03T04:54:46;6.70;;;2.50;;
63193;SDS011;49289;51.670;5.624;2022-09-03T04:56:34;3.10;;;2.50;;
63193;SDS011;49289;51.670;5.624;2022-09-03T04:58:22;5.80;;;2.70;;
63193;SDS011;49289;51.670;5.624;2022-09-03T05:00:11;11.70;;;2.50;;
63193;SDS011;49289;51.670;5.624;2022-09-03T05:01:59;8.60;;;2.50;;
63193;SDS011;49289;51.670;5.624;2022-09-03T05:03:48;7.50;;;2.60;;
63193;SDS011;49289;51.670;5.624;2022-09-03T05:05:36;6.00;;;2.60;;
63193;SDS011;49289;51.670;5.624;2022-09-03T05:07:25;5.50;;;2.40;;
63193;SDS011;49289;51.670;5.624;2022-09-03T05:08:57;7.40;;;2.70;;
63193;SDS011;49289;51.670;5.624;2022-09-03T05:10:45;6.50;;;2.50;;
63193;SDS011;49289;51.670;5.624;2022-09-03T05:12:34;3.60;;;2.20;;
63193;SDS011;49289;51.670;5.624;2022-09-03T05:14:22;3.40;;;2.30;;
63193;SDS011;49289;51.670;5.624;2022-09-03T05:16:10;5.00;;;2.60;;
63193;SDS011;49289;51.670;5.624;2022-09-03T05:18:00;3.50;;;2.40;;
63193;SDS011;49289;51.670;5.624;2022-09-03T05:19:47;3.50;;;2.70;;
63193;SDS011;49289;51.670;5.624;2022-09-03T05:21:35;3.40;;;2.40;;
63193;SDS011;49289;51.670;5.624;2022-09-03T05:23:23;2.90;;;2.30;;
63193;SDS011;49289;51.670;5.624;2022-09-03T05:25:12;3.20;;;2.30;;
63193;SDS011;49289;51.670;5.624;2022-09-03T05:26:46;6.00;;;2.60;;
63193;SDS011;49289;51.670;5.624;2022-09-03T05:28:34;4.70;;;2.40;;
63193;SDS011;49289;51.670;5.624;2022-09-03T05:30:21;6.00;;;2.40;;
63193;SDS011;49289;51.670;5.624;2022-09-03T05:32:08;6.20;;;2.80;;
63193;SDS011;49289;51.670;5.624;2022-09-03T05:33:41;3.40;;;2.40;;
63193;SDS011;49289;51.670;5.624;2022-09-03T05:35:28;5.50;;;2.50;;
63193;SDS011;49289;51.670;5.624;2022-09-03T05:37:17;5.40;;;2.20;;
63193;SDS011;49289;51.670;5.624;2022-09-03T05:39:05;4.80;;;2.30;;
63193;SDS011;49289;51.670;5.624;2022-09-03T05:40:53;5.10;;;2.50;;
63193;SDS011;49289;51.670;5.624;2022-09-03T05:42:27;4.40;;;2.30;;
63193;SDS011;49289;51.670;5.624;2022-09-03T05:44:14;6.10;;;2.70;;
63193;SDS011;49289;51.670;5.624;2022-09-03T05:46:03;5.70;;;2.40;;
63193;SDS011;49289;51.670;5.624;2022-09-03T05:47:51;5.70;;;2.40;;
63193;SDS011;49289;51.670;5.624;2022-09-03T05:49:39;3.30;;;2.40;;
63193;SDS011;49289;51.670;5.624;2022-09-03T05:51:26;8.00;;;2.20;;
63193;SDS011;49289;51.670;5.624;2022-09-03T05:53:13;3.60;;;2.30;;
63193;SDS011;49289;51.670;5.624;2022-09-03T05:54:45;4.30;;;2.20;;
63193;SDS011;49289;51.670;5.624;2022-09-03T05:56:34;4.10;;;2.50;;
63193;SDS011;49289;51.670;5.624;2022-09-03T05:58:22;3.40;;;2.30;;
63193;SDS011;49289;51.670;5.624;2022-09-03T06:00:11;4.70;;;2.30;;
63193;SDS011;49289;51.670;5.624;2022-09-03T06:01:59;2.80;;;2.50;;
63193;SDS011;49289;51.670;5.624;2022-09-03T06:03:47;5.20;;;2.30;;
63193;SDS011;49289;51.670;5.624;2022-09-03T06:05:33;9.90;;;2.40;;
63193;SDS011;49289;51.670;5.624;2022-09-03T06:07:20;4.90;;;2.20;;
63193;SDS011;49289;51.670;5.624;2022-09-03T06:09:08;5.70;;;2.60;;
63193;SDS011;49289;51.670;5.624;2022-09-03T06:10:54;4.90;;;2.30;;
63193;SDS011;49289;51.670;5.624;2022-09-03T06:12:44;3.60;;;2.20;;
63193;SDS011;49289;51.670;5.624;2022-09-03T06:14:31;2.60;;;2.00;;
63193;SDS011;49289;51.670;5.624;2022-09-03T06:16:19;6.20;;;2.40;;
63193;SDS011;49289;51.670;5.624;2022-09-03T06:18:05;7.30;;;2.40;;
63193;SDS011;49289;51.670;5.624;2022-09-03T06:19:53;4.70;;;2.30;;
63193;SDS011;49289;51.670;5.624;2022-09-03T06:21:27;5.80;;;2.40;;
63193;SDS011;49289;51.670;5.624;2022-09-03T06:23:15;6.90;;;2.20;;
63193;SDS011;49289;51.670;5.624;2022-09-03T06:25:02;6.70;;;2.10;;
63193;SDS011;49289;51.670;5.624;2022-09-03T06:26:51;6.30;;;2.20;;
63193;SDS011;49289;51.670;5.624;2022-09-03T06:28:39;4.90;;;2.30;;
63193;SDS011;49289;51.670;5.624;2022-09-03T06:30:26;3.30;;;1.90;;
63193;SDS011;49289;51.670;5.624;2022-09-03T06:32:15;4.20;;;2.20;;
63193;SDS011;49289;51.670;5.624;2022-09-03T06:33:47;4.40;;;2.10;;
63193;SDS011;49289;51.670;5.624;2022-09-03T06:35:38;5.70;;;1.90;;
63193;SDS011;49289;51.670;5.624;2022-09-03T06:37:11;5.30;;;2.10;;
63193;SDS011;49289;51.670;5.624;2022-09-03T06:38:43;3.20;;;2.10;;
63193;SDS011;49289;51.670;5.624;2022-09-03T06:40:30;2.20;;;2.00;;
63193;SDS011;49289;51.670;5.624;2022-09-03T06:42:17;5.40;;;2.00;;
63193;SDS011;49289;51.670;5.624;2022-09-03T06:44:06;2.70;;;2.00;;
63193;SDS011;49289;51.670;5.624;2022-09-03T06:46:00;3.50;;;2.00;;
63193;SDS011;49289;51.670;5.624;2022-09-03T06:47:47;5.10;;;2.40;;
63193;SDS011;49289;51.670;5.624;2022-09-03T06:49:34;4.60;;;2.00;;
63193;SDS011;49289;51.670;5.624;2022-09-03T06:51:22;4.10;;;2.20;;
63193;SDS011;49289;51.670;5.624;2022-09-03T06:53:08;3.50;;;2.00;;
63193;SDS011;49289;51.670;5.624;2022-09-03T06:54:56;4.80;;;2.00;;
63193;SDS011;49289;51.670;5.624;2022-09-03T06:56:44;5.80;;;2.00;;
63193;SDS011;49289;51.670;5.624;2022-09-03T06:58:17;2.80;;;2.00;;
63193;SDS011;49289;51.670;5.624;2022-09-03T07:00:06;4.80;;;2.10;;
63193;SDS011;49289;51.670;5.624;2022-09-03T07:01:54;2.40;;;1.70;;
63193;SDS011;49289;51.670;5.624;2022-09-03T07:03:26;5.90;;;2.00;;
63193;SDS011;49289;51.670;5.624;2022-09-03T07:04:59;2.40;;;1.70;;
63193;SDS011;49289;51.670;5.624;2022-09-03T07:06:47;2.80;;;2.00;;
63193;SDS011;49289;51.670;5.624;2022-09-03T07:08:36;3.10;;;1.90;;
63193;SDS011;49289;51.670;5.624;2022-09-03T07:10:09;4.50;;;2.30;;
63193;SDS011;49289;51.670;5.624;2022-09-03T07:11:58;6.30;;;2.20;;
63193;SDS011;49289;51.670;5.624;2022-09-03T07:13:45;3.70;;;1.70;;
63193;SDS011;49289;51.670;5.624;2022-09-03T07:15:32;3.20;;;1.90;;
63193;SDS011;49289;51.670;5.624;2022-09-03T07:17:19;5.30;;;2.10;;
63193;SDS011;49289;51.670;5.624;2022-09-03T07:19:06;6.20;;;2.00;;
63193;SDS011;49289;51.670;5.624;2022-09-03T07:20:56;3.20;;;2.10;;
63193;SDS011;49289;51.670;5.624;2022-09-03T07:22:45;4.00;;;1.90;;
63193;SDS011;49289;51.670;5.624;2022-09-03T07:24:34;6.80;;;2.10;;
63193;SDS011;49289;51.670;5.624;2022-09-03T07:26:07;3.00;;;2.00;;
63193;SDS011;49289;51.670;5.624;2022-09-03T07:27:54;4.00;;;1.80;;
63193;SDS011;49289;51.670;5.624;2022-09-03T07:29:41;3.30;;;2.10;;
63193;SDS011;49289;51.670;5.624;2022-09-03T07:31:30;5.70;;;2.00;;
63193;SDS011;49289;51.670;5.624;2022-09-03T07:33:16;5.40;;;1.90;;
63193;SDS011;49289;51.670;5.624;2022-09-03T07:35:05;3.70;;;1.90;;
63193;SDS011;49289;51.670;5.624;2022-09-03T07:36:52;2.60;;;1.90;;
63193;SDS011;49289;51.670;5.624;2022-09-03T07:38:39;2.00;;;1.80;;
63193;SDS011;49289;51.670;5.624;2022-09-03T07:40:26;4.00;;;2.00;;
63193;SDS011;49289;51.670;5.624;2022-09-03T07:42:13;4.70;;;1.90;;
63193;SDS011;49289;51.670;5.624;2022-09-03T07:44:02;3.90;;;1.90;;
63193;SDS011;49289;51.670;5.624;2022-09-03T07:45:54;4.30;;;1.90;;
63193;SDS011;49289;51.670;5.624;2022-09-03T07:47:27;4.30;;;1.90;;
63193;SDS011;49289;51.670;5.624;2022-09-03T07:49:15;2.90;;;1.90;;
63193;SDS011;49289;51.670;5.624;2022-09-03T07:51:04;4.50;;;2.00;;
63193;SDS011;49289;51.670;5.624;2022-09-03T07:52:37;4.40;;;2.00;;
63193;SDS011;49289;51.670;5.624;2022-09-03T07:54:24;4.50;;;2.00;;
63193;SDS011;49289;51.670;5.624;2022-09-03T07:56:11;4.80;;;2.30;;
63193;SDS011;49289;51.670;5.624;2022-09-03T07:58:00;9.10;;;1.70;;
63193;SDS011;49289;51.670;5.624;2022-09-03T07:59:47;4.80;;;1.90;;
63193;SDS011;49289;51.670;5.624;2022-09-03T08:01:20;3.80;;;1.90;;
63193;SDS011;49289;51.670;5.624;2022-09-03T08:02:51;6.40;;;2.10;;
63193;SDS011;49289;51.670;5.624;2022-09-03T08:04:39;5.80;;;2.10;;
63193;SDS011;49289;51.670;5.624;2022-09-03T08:06:13;4.00;;;1.80;;
63193;SDS011;49289;51.670;5.624;2022-09-03T08:08:00;6.80;;;2.20;;
63193;SDS011;49289;51.670;5.624;2022-09-03T08:09:47;6.20;;;2.00;;
63193;SDS011;49289;51.670;5.624;2022-09-03T08:11:35;5.60;;;1.80;;
63193;SDS011;49289;51.670;5.624;2022-09-03T08:13:07;4.90;;;2.10;;
63193;SDS011;49289;51.670;5.624;2022-09-03T08:14:41;3.90;;;1.80;;
63193;SDS011;49289;51.670;5.624;2022-09-03T08:16:28;9.10;;;1.80;;
63193;SDS011;49289;51.670;5.624;2022-09-03T08:18:15;2.70;;;1.80;;
63193;SDS011;49289;51.670;5.624;2022-09-03T08:20:02;5.20;;;1.90;;
63193;SDS011;49289;51.670;5.624;2022-09-03T08:21:50;4.90;;;1.90;;
63193;SDS011;49289;51.670;5.624;2022-09-03T08:23:42;5.90;;;1.80;;
63193;SDS011;49289;51.670;5.624;2022-09-03T08:25:28;3.90;;;2.00;;
63193;SDS011;49289;51.670;5.624;2022-09-03T08:27:15;5.10;;;1.60;;
63193;SDS011;49289;51.670;5.624;2022-09-03T08:29:03;4.00;;;1.90;;
63193;SDS011;49289;51.670;5.624;2022-09-03T08:31:10;4.70;;;1.90;;
63193;SDS011;49289;51.670;5.624;2022-09-03T08:32:56;7.90;;;2.00;;
63193;SDS011;49289;51.670;5.624;2022-09-03T08:34:43;6.20;;;2.00;;
63193;SDS011;49289;51.670;5.624;2022-09-03T08:36:31;4.90;;;2.00;;
63193;SDS011;49289;51.670;5.624;2022-09-03T08:38:18;3.50;;;1.80;;
63193;SDS011;49289;51.670;5.624;2022-09-03T08:40:07;4.80;;;1.80;;
63193;SDS011;49289;51.670;5.624;2022-09-03T08:44:08;7.00;;;1.90;;
63193;SDS011;49289;51.670;5.624;2022-09-03T08:45:55;8.40;;;2.00;;
63193;SDS011;49289;51.670;5.624;2022-09-03T08:47:44;7.10;;;2.20;;
63193;SDS011;49289;51.670;5.624;2022-09-03T08:49:17;4.70;;;1.90;;
63193;SDS011;49289;51.670;5.624;2022-09-03T08:51:05;3.90;;;1.70;;
63193;SDS011;49289;51.670;5.624;2022-09-03T08:52:53;4.40;;;1.90;;
63193;SDS011;49289;51.670;5.624;2022-09-03T08:55:40;3.20;;;1.80;;
63193;SDS011;49289;51.670;5.624;2022-09-03T08:57:26;5.50;;;1.80;;
63193;SDS011;49289;51.670;5.624;2022-09-03T08:59:17;2.10;;;1.80;;
63193;SDS011;49289;51.670;5.624;2022-09-03T09:00:52;8.30;;;2.10;;
63193;SDS011;49289;51.670;5.624;2022-09-03T09:02:43;2.50;;;1.70;;
63193;SDS011;49289;51.670;5.624;2022-09-03T09:04:37;4.00;;;1.70;;
63193;SDS011;49289;51.670;5.624;2022-09-03T09:06:29;3.50;;;1.80;;
63193;SDS011;49289;51.670;5.624;2022-09-03T09:08:02;5.20;;;1.90;;
63193;SDS011;49289;51.670;5.624;2022-09-03T09:09:34;8.40;;;2.10;;
63193;SDS011;49289;51.670;5.624;2022-09-03T09:11:07;3.10;;;1.90;;
63193;SDS011;49289;51.670;5.624;2022-09-03T09:12:57;3.30;;;1.80;;
63193;SDS011;49289;51.670;5.624;2022-09-03T09:14:44;3.90;;;1.90;;
63193;SDS011;49289;51.670;5.624;2022-09-03T09:16:34;3.10;;;2.00;;
63193;SDS011;49289;51.670;5.624;2022-09-03T09:18:22;4.40;;;1.90;;
63193;SDS011;49289;51.670;5.624;2022-09-03T09:20:12;3.10;;;1.90;;
63193;SDS011;49289;51.670;5.624;2022-09-03T09:22:00;4.80;;;2.00;;
63193;SDS011;49289;51.670;5.624;2022-09-03T09:23:48;3.80;;;1.90;;
63193;SDS011;49289;51.670;5.624;2022-09-03T09:25:36;2.00;;;1.80;;
63193;SDS011;49289;51.670;5.624;2022-09-03T09:27:22;4.90;;;2.10;;
63193;SDS011;49289;51.670;5.624;2022-09-03T09:29:09;3.70;;;1.90;;
63193;SDS011;49289;51.670;5.624;2022-09-03T09:30:57;3.80;;;1.60;;
63193;SDS011;49289;51.670;5.624;2022-09-03T09:32:46;5.60;;;1.80;;
63193;SDS011;49289;51.670;5.624;2022-09-03T09:34:34;3.00;;;1.80;;
63193;SDS011;49289;51.670;5.624;2022-09-03T09:36:21;5.60;;;2.00;;
63193;SDS011;49289;51.670;5.624;2022-09-03T09:38:09;3.50;;;2.00;;
63193;SDS011;49289;51.670;5.624;2022-09-03T09:39:59;3.80;;;1.90;;
63193;SDS011;49289;51.670;5.624;2022-09-03T09:41:33;6.90;;;2.00;;
63193;SDS011;49289;51.670;5.624;2022-09-03T09:43:21;2.50;;;1.70;;
63193;SDS011;49289;51.670;5.624;2022-09-03T09:45:13;2.80;;;1.80;;
63193;SDS011;49289;51.670;5.624;2022-09-03T09:47:10;4.80;;;1.80;;
63193;SDS011;49289;51.670;5.624;2022-09-03T09:48:58;4.00;;;1.90;;
63193;SDS011;49289;51.670;5.624;2022-09-03T09:50:31;4.80;;;1.80;;
63193;SDS011;49289;51.670;5.624;2022-09-03T09:52:18;3.30;;;2.00;;
63193;SDS011;49289;51.670;5.624;2022-09-03T09:54:11;3.40;;;2.00;;
63193;SDS011;49289;51.670;5.624;2022-09-03T09:55:57;5.10;;;2.00;;
63193;SDS011;49289;51.670;5.624;2022-09-03T09:57:45;3.40;;;1.90;;
63193;SDS011;49289;51.670;5.624;2022-09-03T09:59:17;4.10;;;2.00;;
63193;SDS011;49289;51.670;5.624;2022-09-03T10:01:09;1.80;;;1.60;;
63193;SDS011;49289;51.670;5.624;2022-09-03T10:02:55;4.30;;;1.70;;
63193;SDS011;49289;51.670;5.624;2022-09-03T10:04:43;5.70;;;2.20;;
63193;SDS011;49289;51.670;5.624;2022-09-03T10:06:17;4.40;;;1.90;;
63193;SDS011;49289;51.670;5.624;2022-09-03T10:08:05;3.00;;;1.90;;
63193;SDS011;49289;51.670;5.624;2022-09-03T10:09:56;2.80;;;1.90;;
63193;SDS011;49289;51.670;5.624;2022-09-03T10:11:44;4.10;;;1.60;;
63193;SDS011;49289;51.670;5.624;2022-09-03T10:13:33;13.50;;;2.00;;
63193;SDS011;49289;51.670;5.624;2022-09-03T10:15:24;2.50;;;1.80;;
63193;SDS011;49289;51.670;5.624;2022-09-03T10:17:12;5.50;;;2.10;;
63193;SDS011;49289;51.670;5.624;2022-09-03T10:18:44;2.30;;;1.80;;
63193;SDS011;49289;51.670;5.624;2022-09-03T10:20:33;4.30;;;1.80;;
63193;SDS011;49289;51.670;5.624;2022-09-03T10:22:22;2.60;;;1.80;;
63193;SDS011;49289;51.670;5.624;2022-09-03T10:24:23;6.80;;;2.20;;
63193;SDS011;49289;51.670;5.624;2022-09-03T10:26:15;1.80;;;1.70;;
63193;SDS011;49289;51.670;5.624;2022-09-03T10:27:49;4.70;;;1.70;;
63193;SDS011;49289;51.670;5.624;2022-09-03T10:29:36;3.40;;;1.90;;
63193;SDS011;49289;51.670;5.624;2022-09-03T10:31:24;2.10;;;1.70;;
63193;SDS011;49289;51.670;5.624;2022-09-03T10:33:22;3.10;;;1.80;;
63193;SDS011;49289;51.670;5.624;2022-09-03T10:35:09;4.40;;;1.60;;
63193;SDS011;49289;51.670;5.624;2022-09-03T10:36:59;3.80;;;1.80;;
63193;SDS011;49289;51.670;5.624;2022-09-03T10:38:44;2.20;;;1.70;;
63193;SDS011;49289;51.670;5.624;2022-09-03T10:40:21;2.60;;;1.70;;
63193;SDS011;49289;51.670;5.624;2022-09-03T10:42:12;2.90;;;1.70;;
63193;SDS011;49289;51.670;5.624;2022-09-03T10:44:03;7.10;;;1.80;;
63193;SDS011;49289;51.670;5.624;2022-09-03T10:45:53;6.60;;;1.90;;